No se requiere un especial cuidado respecto a la situación meteorológica.   -   No hay avisos

Informes METAR

 

LEZL - Sevilla, Spain
Distancia de la estación: ENE 8km
Actualización: 05/05/2016 19:40
Lluvia débil, Muy nuboso
Lluvia débil, Muy nuboso
 Viento de SO
Viento: SO 7 km/h
Temperatura: 18°C
Rocío: 16°C
Humedad: 88%
Barómetro: 1010 hPa
Resumen: Lluvia débil
Nubes: Muy nuboso
Visibilidad: 10 km
Detalles de las nubes: Poco nuboso 610 m
Muy nuboso 1067 m
2016/05/05 17:40 LEZL 051740Z 22004KT 170V300 9999 -RA FEW020TCU BKN035 18/16 Q1010 RESHRA NOSIG
LEMO - Morón, Spain
Distancia de la estación: SE 43km
Actualización: 05/05/2016 19:00
Parcialmente nuboso
Parcialmente nuboso
 Viento de SO
Viento: SO 24 km/h
Temperatura: 22°C
Rocío: 15°C
Humedad: 65%
Barómetro: 1010 hPa
Nubes: Parcialmente nuboso
Visibilidad: 10 km
Detalles de las nubes: Poco nuboso 914 m
Parcialmente nuboso 1250 m
2016/05/05 17:00 LEMO 051700Z 22013KT 190V280 9999 FEW030 SCT041 22/15 Q1010 NOSIG
LEJR - Jeréz, Spain
Distancia de la estación: S 71km
Actualización: 05/05/2016 20:00
Poco nuboso
Poco nuboso
 Viento de SSO
Viento: SSO 22 km/h
Temperatura: 21°C
Rocío: 13°C
Humedad: 60%
Barómetro: 1011 hPa
Nubes: Poco nuboso
Visibilidad: 10 km
Detalles de las nubes: Poco nuboso 975 m
2016/05/05 18:00 LEJR 051800Z 21012KT 9999 FEW032 21/13 Q1011
 
LERT - Rota, Spain
Distancia de la estación: SSO 89km
Actualización: 05/05/2016 19:00
Poco nuboso
Poco nuboso
 Viento de S
Viento: S 26 km/h
Temperatura: 19°C
Rocío: 16°C
Humedad: 83%
Barómetro: 1011 hPa
Nubes: Poco nuboso
Visibilidad: 10 km
Detalles de las nubes: Poco nuboso 610 m
2016/05/05 17:00 LERT 051700Z 17014KT 140V200 9999 FEW020 19/16 Q1011 NOSIG
LEMG - Málaga, Spain
Distancia de la estación: ESE 157km
Actualización: 05/05/2016 19:30
Poco nuboso
Poco nuboso
 Viento de SSE
Viento: SSE 17 km/h
Temperatura: 19°C
Rocío: 12°C
Humedad: 64%
Barómetro: 1012 hPa
Nubes: Poco nuboso
Visibilidad: 10 km
Detalles de las nubes: Poco nuboso 1219 m
2016/05/05 17:30 LEMG 051730Z 15009KT 110V170 9999 FEW040 19/12 Q1012 NOSIG
LEBA - Córdoba, Spain
Distancia de la estación: ENE 115km
Actualización: 05/05/2016 19:00
Muy nuboso
Muy nuboso
 Viento de ENE
Viento: ENE 4 km/h
Temperatura: 22°C
Rocío: 9°C
Humedad: 44%
Barómetro: 1010 hPa
Nubes: Muy nuboso
Visibilidad: 10 km
Detalles de las nubes: Poco nuboso 1372 m
Muy nuboso 2134 m
2016/05/05 17:00 LEBA 051700Z 07002KT 9999 FEW045 BKN070 22/09 Q1010
 
LEGR - Granada, Spain
Distancia de la estación: E 198km
Actualización: 05/05/2016 19:30
Poco nuboso
Poco nuboso
 Viento de OSO
Viento: OSO 19 km/h
Temperatura: 22°C
Rocío: 10°C
Humedad: 47%
Barómetro: 1011 hPa
Nubes: Poco nuboso
Visibilidad: 10 km
Detalles de las nubes: Poco nuboso 1219 m
2016/05/05 17:30 LEGR 051730Z 24010KT 9999 FEW040 22/10 Q1011
LEAM - Almería, Spain
Distancia de la estación: E 326km
Actualización: 05/05/2016 19:30
Lluvia débil, Parcialmente nuboso
Lluvia débil, Parcialmente nuboso
 Viento de NE
Viento: NE 15 km/h
Temperatura: 19°C
Rocío: 15°C
Humedad: 78%
Barómetro: 1010 hPa
Resumen: Lluvia débil
Nubes: Parcialmente nuboso
Visibilidad: 10 km
Detalles de las nubes: Poco nuboso 457 m
Parcialmente nuboso 914 m
2016/05/05 17:30 LEAM 051730Z 05008KT 9999 -RA FEW015 SCT030 19/15 Q1010
LEMD - Madrid/Barajas, Spain
Distancia de la estación: NNE 402km
Actualización: 05/05/2016 19:30
Muy nuboso
Muy nuboso
 Viento de S
Viento: S 17 km/h
Temperatura: 17°C
Rocío: 5°C
Humedad: 45%
Barómetro: 1013 hPa
Nubes: Muy nuboso
Visibilidad: 10 km
Detalles de las nubes: Poco nuboso 1372 m
Muy nuboso 2134 m
2016/05/05 17:30 LEMD 051730Z 17009KT 140V200 9999 FEW045 BKN070 17/05 Q1013 NOSIG
 
LEVD - Valladolid, Spain
Distancia de la estación: N 492km
Actualización: 05/05/2016 19:30
Tormenta, Muy nuboso
Tormenta, Muy nuboso
 Viento de SSO
Viento: SSO 26 km/h
Temperatura: 13°C
Rocío: 10°C
Humedad: 82%
Barómetro: 1011 hPa
Resumen: Tormenta
Nubes: Muy nuboso
Visibilidad: 10 km
Detalles de las nubes: Parcialmente nuboso 914 m
Muy nuboso 1219 m
2016/05/05 17:30 LEVD 051730Z 21014KT 170V240 9999 TS SCT030CB BKN040 13/10 Q1011 NOSIG
LEBL - Barcelona, Spain
Distancia de la estación: NE 816km
Actualización: 05/05/2016 19:30
Parcialmente nuboso
Parcialmente nuboso
 Viento de E
Viento: E 22 km/h
Temperatura: 16°C
Rocío: 12°C
Humedad: 77%
Barómetro: 1015 hPa
Nubes: Parcialmente nuboso
Visibilidad: 10 km
Detalles de las nubes: Parcialmente nuboso 488 m
2016/05/05 17:30 LEBL 051730Z 08012KT 9999 SCT016 16/12 Q1015 NOSIG
LEVC - Valencia, Spain
Distancia de la estación: ENE 535km
Actualización: 05/05/2016 19:30
Despejado
Despejado
 Viento de calm
Viento: Calma
Temperatura: 18°C
Rocío: 10°C
Humedad: 60%
Barómetro: 1014 hPa
Resumen: Despejado
Visibilidad: mayor de 10 km
2016/05/05 17:30 LEVC 051730Z 00000KT CAVOK 18/10 Q1014 NOSIG